UHSS

Details ICAO UHSS (UUS)
Name KHOMUTOVO
Region Russia
Timezone Asia/Sakhalin (UTC+11.0)
Plans Departing 88
Arriving 77
Stats Elevation 59 ft / 18 m (AMSL)
Location 46.885582° 142.717529°
Runways 1
Magnetic Variation 10.385° W
Sunrise 2017-12-16 22:10:18 UTC / 2017-12-17 09:10:18 Local
Sunset 2017-12-17 06:42:34 UTC / 2017-12-17 17:42:34 Local
Advertisement - Login to hide

Runways

ID Width Length Bearing (true) Bearing (mag) Surface Threshold Offset Overrun Length
01 148 ft / 45 m 11,109 ft / 3,386 m 0.66° 11.04° Concrete 0 ft / 0 m 255 ft / 78 m
19 148 ft / 45 m 11,109 ft / 3,386 m 180.66° 191.04° Concrete 0 ft / 0 m 265 ft / 81 m

Map

Weather


0- 5 10 15 20 25 30 35+ Temperature / ° C

Clouds and Precipitation
Forecast for 2017-12-16 18:00 UTC. Updated 2 hours ago

Ground ~20,000 ft ~40,000 ft Winds

METAR

UHSS 161500Z 36006G11MPS 2300 -SHSN BLSN BKN025CB M07/M08 Q1006 R01/491245 NOSIG RMK MT OBSC QFE753/1005

TAF

TAF UHSS 161400Z 1615/1721 36008MPS 3100 -SHSN BLSN BKN020CB OVC100 TEMPO 1615/1619 1400 SHSN BLSN BKN004 OVC015CB BECMG 1619/1622 9999 NSW BKN030CB BECMG 1704/1706 32004MPS TEMPO 1716/1721 3100 -SHSN

Frequencies

Tower 120.60 MHz TWR
Warning: Do not use this data for real-world aviation or navigation. No guarantee of current accuracy is given.